Time;durP1;ratioP1;P1;durP2;ratioP2;P2;SDS_P1;SDS_P2;PMS_P1;PMS_P2;Temp;Humidity;BMP_temperature;BMP_pressure;BME280_temperature;BME280_humidity;BME280_pressure;Samples;Min_cycle;Max_cycle;Signal;HPM_P1;HPM_P2
2022/03/24 00:00:32;;;;;;;;;54.00;39.50;;;;;11.02;48.74;102567.50;5054816;28;45954;-69
2022/03/24 00:02:57;;;;;;;;;59.50;42.75;;;;;11.00;48.92;102571.03;5039207;28;45522;-69
2022/03/24 00:05:23;;;;;;;;;54.75;42.50;;;;;10.99;49.00;102572.78;5041405;28;45276;-69
2022/03/24 00:07:48;;;;;;;;;53.75;40.50;;;;;10.96;49.43;102571.09;5043322;28;45662;-69
2022/03/24 00:10:13;;;;;;;;;53.50;41.00;;;;;10.94;49.48;102566.72;5043674;28;45565;-69
2022/03/24 00:12:41;;;;;;;;;44.00;33.25;;;;;10.91;49.56;102565.03;5043206;28;45561;-69
2022/03/24 00:15:08;;;;;;;;;63.25;44.25;;;;;10.91;49.84;102566.75;5038601;28;46231;-69
2022/03/24 00:17:34;;;;;;;;;62.50;42.50;;;;;10.89;49.67;102561.53;5051169;28;45355;-69
2022/03/24 00:20:00;;;;;;;;;57.50;44.00;;;;;10.86;50.12;102558.09;5054616;28;45764;-69
2022/03/24 00:22:26;;;;;;;;;57.75;45.25;;;;;10.85;49.89;102564.22;5054765;28;45526;-69
2022/03/24 00:24:52;;;;;;;;;50.50;41.00;;;;;10.85;50.40;102558.97;5053743;28;46329;-69
2022/03/24 00:27:17;;;;;;;;;52.50;40.25;;;;;10.82;50.36;102559.91;5054522;28;45447;-69
2022/03/24 00:29:43;;;;;;;;;53.75;40.25;;;;;10.80;50.79;102556.41;5040164;28;45402;-69
2022/03/24 00:32:09;;;;;;;;;60.50;43.25;;;;;10.79;50.61;102562.56;5051282;28;45498;-69
2022/03/24 00:34:35;;;;;;;;;57.50;41.25;;;;;10.76;50.92;102561.75;5046700;28;46320;-68
2022/03/24 00:37:02;;;;;;;;;57.50;39.00;;;;;10.74;51.10;102561.75;5041220;28;45822;-69
2022/03/24 00:39:33;;;;;;;;;53.75;38.25;;;;;10.73;50.77;102562.66;5050292;28;45479;-69
2022/03/24 00:41:59;;;;;;;;;56.50;42.50;;;;;10.70;50.92;102558.31;5040500;28;45487;-69
2022/03/24 00:44:25;;;;;;;;;58.50;46.50;;;;;10.67;51.07;102555.72;5040783;28;46435;-69
2022/03/24 00:46:51;;;;;;;;;59.00;43.25;;;;;10.68;51.51;102562.72;5042908;28;45409;-69
2022/03/24 00:49:16;;;;;;;;;53.00;41.00;;;;;10.65;51.48;102561.91;5043230;28;45534;-68
2022/03/24 00:51:41;;;;;;;;;55.00;42.75;;;;;10.64;51.18;102552.25;5054329;28;45582;-69
2022/03/24 00:54:07;;;;;;;;;59.50;45.50;;;;;10.62;51.21;102556.69;5053697;28;46004;-69
2022/03/24 00:56:32;;;;;;;;;57.25;43.00;;;;;10.60;51.38;102550.59;5044056;28;45676;-69
2022/03/24 00:58:58;;;;;;;;;54.00;44.00;;;;;10.58;51.42;102553.22;5049069;28;45384;-69
2022/03/24 01:01:23;;;;;;;;;56.00;43.50;;;;;10.56;50.90;102556.78;5049572;28;45439;-68
2022/03/24 01:03:49;;;;;;;;;57.50;43.50;;;;;10.54;51.41;102555.91;5051499;28;45526;-69
2022/03/24 01:06:16;;;;;;;;;57.50;41.25;;;;;10.52;51.16;102553.31;5039398;28;45443;-69
2022/03/24 01:08:42;;;;;;;;;54.75;44.00;;;;;10.49;51.52;102558.59;5039288;28;45434;-69
2022/03/24 01:11:08;;;;;;;;;54.75;41.75;;;;;10.46;51.46;102548.13;5041705;28;45919;-69
2022/03/24 01:13:34;;;;;;;;;58.50;43.25;;;;;10.43;51.17;102549.03;5042490;28;45455;-69
2022/03/24 01:16:01;;;;;;;;;58.00;42.00;;;;;10.39;51.92;102541.22;5046067;28;45677;-69
2022/03/24 01:18:27;;;;;;;;;57.00;43.25;;;;;10.35;51.60;102543.03;5040957;28;45626;-69
2022/03/24 01:20:52;;;;;;;;;59.00;41.50;;;;;10.31;51.62;102543.06;5037844;28;45241;-69
2022/03/24 01:23:19;;;;;;;;;53.50;41.00;;;;;10.28;51.90;102545.72;5040665;28;45384;-69
2022/03/24 01:25:44;;;;;;;;;55.25;42.75;;;;;10.22;52.22;102546.66;5051053;28;45332;-69
2022/03/24 01:28:10;;;;;;;;;57.50;44.50;;;;;10.22;52.92;102543.16;5051025;28;45377;-69
2022/03/24 01:30:39;;;;;;;;;51.75;43.00;;;;;10.18;52.75;102540.59;5046223;28;45886;-69
2022/03/24 01:33:04;;;;;;;;;55.50;40.00;;;;;10.18;53.49;102539.72;5053420;28;46639;-69
2022/03/24 01:35:30;;;;;;;;;55.25;41.75;;;;;10.13;53.53;102539.78;5054441;28;45371;-69
2022/03/24 01:37:55;;;;;;;;;55.50;45.50;;;;;10.08;53.57;102531.06;5053764;28;46784;-69
2022/03/24 01:40:20;;;;;;;;;55.75;42.75;;;;;10.07;53.57;102538.94;5057066;28;45245;-69
2022/03/24 01:42:46;;;;;;;;;52.50;39.50;;;;;10.05;54.19;102531.09;5057311;28;45499;-69
2022/03/24 01:45:14;;;;;;;;;55.75;43.00;;;;;10.03;54.19;102534.66;5057099;28;45375;-69
2022/03/24 01:47:40;;;;;;;;;54.75;43.25;;;;;10.01;54.13;102533.78;5057586;28;45636;-69
2022/03/24 01:50:07;;;;;;;;;58.75;45.00;;;;;10.00;54.41;102538.16;5057715;28;45801;-69
2022/03/24 01:52:33;;;;;;;;;53.25;41.75;;;;;9.98;54.23;102524.19;5056311;28;46417;-69
2022/03/24 01:55:00;;;;;;;;;51.75;38.00;;;;;9.98;54.51;102531.22;5053250;28;45707;-69
2022/03/24 01:57:28;;;;;;;;;63.75;46.25;;;;;9.96;54.34;102528.56;5055034;28;45494;-69
2022/03/24 01:59:54;;;;;;;;;49.75;39.25;;;;;9.93;54.57;102526.88;5041057;28;45655;-69
2022/03/24 02:02:23;;;;;;;;;55.25;42.00;;;;;9.91;54.84;102533.00;5043512;28;46348;-69
2022/03/24 02:04:49;;;;;;;;;56.00;39.50;;;;;9.86;54.88;102521.69;5050024;28;45902;-69
2022/03/24 02:07:14;;;;;;;;;59.00;39.75;;;;;9.83;55.38;102527.00;5051078;28;45515;-69
2022/03/24 02:09:40;;;;;;;;;46.00;40.25;;;;;9.82;55.33;102525.25;5042217;28;45155;-69
2022/03/24 02:12:07;;;;;;;;;53.75;42.25;;;;;9.78;55.56;102523.56;5040837;28;46249;-69
2022/03/24 02:14:34;;;;;;;;;56.00;43.50;;;;;9.75;55.50;102523.56;5041863;28;45798;-69
2022/03/24 02:17:00;;;;;;;;;59.50;44.25;;;;;9.71;55.18;102527.09;5055958;28;45348;-69
2022/03/24 02:19:26;;;;;;;;;52.75;39.00;;;;;9.67;55.03;102528.91;5056512;28;45559;-69
2022/03/24 02:21:55;;;;;;;;;56.75;42.50;;;;;9.64;55.58;102528.94;5053991;28;45415;-69
2022/03/24 02:24:23;;;;;;;;;50.50;40.00;;;;;9.61;55.75;102521.09;5041252;28;45418;-69
2022/03/24 02:26:49;;;;;;;;;56.25;40.00;;;;;9.58;55.39;102532.50;5046938;28;45409;-69
2022/03/24 02:29:16;;;;;;;;;51.75;40.50;;;;;9.55;55.69;102524.66;5056859;28;45393;-69
2022/03/24 02:31:44;;;;;;;;;51.50;41.00;;;;;9.52;55.15;102529.94;5049979;28;45496;-69
2022/03/24 02:37:00;;;;;;;;;46.75;38.25;;;;;9.47;55.44;102525.63;5044814;28;45495;-69
2022/03/24 02:39:26;;;;;;;;;54.00;39.25;;;;;9.46;55.52;102524.75;5044111;28;45502;-68
2022/03/24 02:41:54;;;;;;;;;58.00;44.25;;;;;9.45;55.33;102523.03;5055993;28;46124;-69
2022/03/24 02:44:25;;;;;;;;;49.75;41.25;;;;;9.43;55.08;102524.78;5051813;28;45515;-69
2022/03/24 02:46:53;;;;;;;;;51.00;40.75;;;;;9.41;55.74;102521.31;5055235;28;45509;-69
2022/03/24 02:49:22;;;;;;;;;55.75;41.25;;;;;9.40;55.54;102524.81;5054351;28;45585;-69
2022/03/24 02:51:49;;;;;;;;;50.25;39.50;;;;;9.36;55.94;102513.47;5053706;28;46318;-69
2022/03/24 02:54:15;;;;;;;;;55.75;43.00;;;;;9.34;55.85;102519.59;5041933;28;45345;-68
2022/03/24 02:56:42;;;;;;;;;58.50;40.75;;;;;9.29;55.44;102522.28;5052111;28;45559;-69
2022/03/24 02:59:08;;;;;;;;;50.75;40.75;;;;;9.25;55.95;102523.19;5045242;28;45427;-69
2022/03/24 03:01:34;;;;;;;;;50.25;40.50;;;;;9.24;56.19;102520.56;5046417;28;48450;-69
2022/03/24 03:04:00;;;;;;;;;54.00;44.75;;;;;9.23;55.98;102524.09;5047009;28;45461;-69
2022/03/24 03:06:26;;;;;;;;;56.75;43.00;;;;;9.21;56.48;102531.09;5040002;28;45555;-69
2022/03/24 03:08:51;;;;;;;;;54.50;38.50;;;;;9.19;56.66;102530.22;5039812;28;45397;-69
2022/03/24 03:11:20;;;;;;;;;56.25;42.75;;;;;9.13;56.25;102528.53;5044338;28;46646;-69
2022/03/24 03:13:46;;;;;;;;;53.75;40.00;;;;;9.13;57.02;102531.16;5048033;28;45348;-69
2022/03/24 03:16:12;;;;;;;;;54.25;43.50;;;;;9.09;56.79;102527.72;5050674;28;45441;-69
2022/03/24 03:18:41;;;;;;;;;49.25;40.25;;;;;9.07;56.62;102531.22;5044406;28;45487;-69
2022/03/24 03:21:09;;;;;;;;;58.75;42.00;;;;;9.05;57.02;102525.97;5039049;28;47263;-69
2022/03/24 03:23:37;;;;;;;;;54.75;41.75;;;;;9.03;57.04;102525.13;5040393;28;45797;-69
2022/03/24 03:26:03;;;;;;;;;54.00;43.25;;;;;9.01;56.97;102531.25;5055533;28;45823;-69
2022/03/24 03:28:28;;;;;;;;;55.00;38.50;;;;;8.97;57.06;102538.28;5047236;28;45471;-69
2022/03/24 03:30:53;;;;;;;;;57.00;40.00;;;;;8.95;57.06;102539.19;5043255;28;45461;-69
2022/03/24 03:33:18;;;;;;;;;50.00;41.67;;;;;8.91;56.86;102534.84;5052482;28;46999;-69
2022/03/24 03:35:44;;;;;;;;;53.33;39.33;;;;;8.88;57.07;102535.75;5055340;28;45599;-69
2022/03/24 03:38:10;;;;;;;;;58.75;44.25;;;;;8.86;57.19;102532.25;5055815;28;45290;-69
2022/03/24 03:40:36;;;;;;;;;59.75;44.00;;;;;8.84;57.37;102531.41;5055351;28;45372;-69
2022/03/24 03:43:01;;;;;;;;;57.50;43.00;;;;;8.82;57.21;102534.03;5051521;28;45351;-69
2022/03/24 03:45:27;;;;;;;;;56.00;43.00;;;;;8.81;57.54;102534.03;5039517;28;45308;-69
2022/03/24 03:47:52;;;;;;;;;57.00;40.00;;;;;8.79;57.26;102534.03;5053195;28;45464;-69
2022/03/24 03:50:18;;;;;;;;;58.50;46.75;;;;;8.79;57.67;102541.03;5040035;28;46992;-69
2022/03/24 03:52:43;;;;;;;;;62.75;45.25;;;;;8.75;57.58;102532.31;5050827;28;45758;-69
2022/03/24 03:55:10;;;;;;;;;56.67;43.33;;;;;8.72;58.08;102534.06;5049994;28;45427;-69
2022/03/24 03:57:35;;;;;;;;;51.50;40.00;;;;;8.70;57.79;102533.22;5043017;28;46334;-69
2022/03/24 04:00:52;;;;;;;;;49.75;39.00;;;;;8.69;58.39;102534.13;5054324;28;45582;-69
2022/03/24 04:02:46;;;;;;;;;57.50;43.00;;;;;8.66;58.28;102528.88;5049221;28;46005;-69
2022/03/24 04:05:12;;;;;;;;;54.33;40.33;;;;;8.65;58.67;102532.38;5042675;28;48053;-69
2022/03/24 04:07:37;;;;;;;;;56.00;42.67;;;;;8.62;58.88;102528.91;5050404;28;45474;-69
2022/03/24 04:10:02;;;;;;;;;58.00;44.67;;;;;8.61;58.71;102526.28;5043253;28;57604;-69
2022/03/24 04:12:28;;;;;;;;;55.75;44.00;;;;;8.57;59.31;102521.97;5041851;28;45297;-69
2022/03/24 04:14:53;;;;;;;;;48.75;41.75;;;;;8.54;59.44;102528.06;5039884;28;47871;-69
2022/03/24 04:17:19;;;;;;;;;54.00;41.00;;;;;8.53;59.35;102528.97;5040964;28;50966;-68
2022/03/24 04:19:44;;;;;;;;;57.75;40.25;;;;;8.50;59.07;102518.47;5043530;28;46000;-69
2022/03/24 04:22:09;;;;;;;;;57.00;43.33;;;;;8.47;59.01;102520.28;5046417;28;51175;-69
2022/03/24 04:24:35;;;;;;;;;45.00;37.50;;;;;8.46;59.58;102521.16;5042473;28;45445;-69
2022/03/24 04:27:00;;;;;;;;;58.25;42.25;;;;;8.44;59.47;102526.38;5053479;28;45227;-68
2022/03/24 04:29:25;;;;;;;;;56.00;41.25;;;;;8.40;59.65;102519.41;5045421;28;46002;-68
2022/03/24 04:31:51;;;;;;;;;50.25;39.25;;;;;8.41;59.39;102528.19;5042362;28;45246;-69
2022/03/24 04:34:16;;;;;;;;;60.75;42.75;;;;;8.38;59.78;102517.69;5050576;28;45400;-69
2022/03/24 04:36:41;;;;;;;;;52.00;40.00;;;;;8.38;59.73;102522.94;5054043;28;45643;-69
2022/03/24 04:39:07;;;;;;;;;53.25;40.75;;;;;8.37;59.91;102522.06;5038947;28;45686;-69
2022/03/24 04:41:32;;;;;;;;;56.50;41.50;;;;;8.37;60.35;102522.06;5037689;28;45398;-69
2022/03/24 04:43:58;;;;;;;;;54.50;43.25;;;;;8.36;60.54;102526.44;5052480;28;45278;-69
2022/03/24 04:46:24;;;;;;;;;54.50;41.50;;;;;8.32;60.38;102521.19;5047349;28;45551;-69
2022/03/24 04:48:49;;;;;;;;;59.25;40.50;;;;;8.33;60.51;102528.16;5042390;28;46824;-69
2022/03/24 04:51:16;;;;;;;;;57.25;40.25;;;;;8.32;60.73;102532.53;5039608;28;45559;-69
2022/03/24 04:53:42;;;;;;;;;55.50;43.50;;;;;8.31;61.04;102530.81;5051206;28;45408;-69
2022/03/24 04:56:08;;;;;;;;;62.00;43.33;;;;;8.30;60.56;102520.31;5052931;28;45423;-69
2022/03/24 04:58:34;;;;;;;;;31.25;25.25;;;;;8.29;60.63;102522.06;5050731;28;46541;-69
2022/03/24 05:01:00;;;;;;;;;60.50;44.75;;;;;8.26;61.17;102519.47;5047845;28;45448;-69
2022/03/24 05:03:25;;;;;;;;;54.75;43.75;;;;;8.22;60.99;102511.63;5043488;28;45500;-69
2022/03/24 05:05:50;;;;;;;;;59.25;42.75;;;;;8.22;60.49;102519.50;5038011;28;45498;-69
2022/03/24 05:08:16;;;;;;;;;57.00;41.25;;;;;8.21;60.73;102520.38;5042302;28;46108;-69
2022/03/24 05:10:41;;;;;;;;;54.00;41.00;;;;;8.16;60.36;102517.78;5043771;28;45925;-69
2022/03/24 05:13:06;;;;;;;;;54.33;41.00;;;;;8.16;60.85;102525.63;5041163;28;45507;-69
2022/03/24 05:15:32;;;;;;;;;63.75;42.50;;;;;8.16;60.97;102519.53;5037491;28;45263;-69
2022/03/24 05:17:57;;;;;;;;;65.25;47.00;;;;;8.15;60.77;102525.66;5044341;28;46997;-69
2022/03/24 05:20:23;;;;;;;;;44.25;33.75;;;;;8.10;60.79;102518.66;5040400;28;45696;-69
2022/03/24 05:22:48;;;;;;;;;56.00;41.50;;;;;8.08;61.04;102517.78;5051333;28;45546;-69
2022/03/24 05:25:14;;;;;;;;;55.00;42.75;;;;;8.05;61.32;102523.06;5053969;28;45301;-69
2022/03/24 05:27:39;;;;;;;;;56.00;41.75;;;;;8.02;61.09;102523.06;5051635;28;46205;-69
2022/03/24 05:30:05;;;;;;;;;48.50;40.25;;;;;8.00;61.02;102516.09;5049032;28;45352;-69
2022/03/24 05:32:31;;;;;;;;;52.75;41.50;;;;;7.99;61.24;102525.69;5038009;28;45398;-68
2022/03/24 05:34:56;;;;;;;;;49.25;38.75;;;;;7.98;61.72;102525.69;5042497;28;45479;-69
2022/03/24 05:37:22;;;;;;;;;55.75;42.75;;;;;7.98;61.82;102525.69;5042075;28;47073;-69
2022/03/24 05:39:47;;;;;;;;;54.50;43.00;;;;;7.95;62.08;102523.97;5046409;28;45383;-69
2022/03/24 05:42:12;;;;;;;;;58.00;41.75;;;;;7.96;62.06;102530.94;5051486;28;45452;-68
2022/03/24 05:44:38;;;;;;;;;55.67;45.00;;;;;7.96;61.81;102525.69;5048569;28;45464;-69
2022/03/24 05:47:03;;;;;;;;;50.75;40.75;;;;;7.98;62.29;102528.31;5042959;28;45785;-69
2022/03/24 05:49:29;;;;;;;;;57.25;41.00;;;;;7.99;62.14;102532.69;5039987;28;45802;-69
2022/03/24 05:51:54;;;;;;;;;59.25;44.50;;;;;8.00;62.56;102529.19;5043539;28;45571;-69
2022/03/24 05:54:20;;;;;;;;;56.75;41.25;;;;;8.02;62.38;102530.03;5052984;28;45667;-69
2022/03/24 05:56:46;;;;;;;;;51.50;40.75;;;;;8.02;62.40;102525.66;5052818;28;45751;-69
2022/03/24 05:59:12;;;;;;;;;55.75;43.50;;;;;8.07;62.50;102531.75;5038651;28;45741;-70
2022/03/24 06:01:39;;;;;;;;;59.00;44.75;;;;;8.08;62.34;102536.13;5044878;28;45518;-70
2022/03/24 06:04:05;;;;;;;;;54.50;43.25;;;;;8.08;61.93;102530.88;5050851;28;45395;-70
2022/03/24 06:06:34;;;;;;;;;52.50;42.00;;;;;8.13;61.66;102545.72;5052999;28;46267;-70
2022/03/24 06:09:03;;;;;;;;;59.25;41.25;;;;;8.14;61.50;102536.97;5038677;28;45969;-70
2022/03/24 06:11:28;;;;;;;;;53.00;40.50;;;;;8.17;61.68;102537.84;5038949;28;45317;-70
2022/03/24 06:13:53;;;;;;;;;52.50;40.25;;;;;8.18;61.71;102536.97;5041708;28;45459;-70
2022/03/24 06:16:19;;;;;;;;;50.00;40.00;;;;;8.21;61.66;102544.81;5041738;28;46150;-70
2022/03/24 06:18:44;;;;;;;;;53.00;41.50;;;;;8.24;61.65;102543.91;5038751;28;45341;-70
2022/03/24 06:21:09;;;;;;;;;51.50;40.00;;;;;8.29;61.18;102539.53;5052610;28;45546;-70
2022/03/24 06:23:35;;;;;;;;;53.25;39.50;;;;;8.35;60.89;102544.72;5053686;28;45333;-70
2022/03/24 06:26:01;;;;;;;;;48.25;38.00;;;;;8.42;60.61;102540.38;5055679;28;46657;-70
2022/03/24 06:28:27;;;;;;;;;48.00;39.25;;;;;8.48;60.50;102546.47;5049687;28;45902;-71
2022/03/24 06:30:53;;;;;;;;;54.00;42.00;;;;;8.55;60.83;102549.91;5047041;28;45510;-70
2022/03/24 06:33:19;;;;;;;;;50.00;37.75;;;;;8.61;60.35;102542.91;5051745;28;45542;-71
2022/03/24 06:35:46;;;;;;;;;56.00;42.00;;;;;8.67;60.49;102544.63;5054602;28;47379;-71
2022/03/24 06:38:12;;;;;;;;;57.00;40.00;;;;;8.73;59.94;102549.81;5050825;28;46088;-71
2022/03/24 06:40:40;;;;;;;;;53.25;40.50;;;;;8.82;60.41;102546.25;5051739;28;45600;-70
2022/03/24 06:43:07;;;;;;;;;55.50;40.25;;;;;8.89;59.71;102542.72;5041167;28;45560;-70
2022/03/24 06:45:34;;;;;;;;;58.00;43.75;;;;;8.97;60.38;102540.03;5050449;28;46838;-70
2022/03/24 06:48:00;;;;;;;;;53.75;41.75;;;;;9.06;60.34;102551.31;5049413;27;46129;-70
2022/03/24 06:50:26;;;;;;;;;56.00;41.00;;;;;9.14;59.73;102538.16;5052317;28;45517;-70
2022/03/24 06:52:51;;;;;;;;;46.50;39.25;;;;;9.28;59.26;102538.91;5054268;28;45592;-70
2022/03/24 06:55:17;;;;;;;;;55.00;41.50;;;;;9.40;59.19;102548.44;5054367;28;45477;-70
2022/03/24 06:57:43;;;;;;;;;57.50;40.25;;;;;9.52;59.12;102539.56;5054636;28;45527;-70
2022/03/24 07:00:13;;;;;;;;;57.00;43.75;;;;;9.65;59.04;102551.66;5045700;28;45476;-70
2022/03/24 07:02:40;;;;;;;;;60.25;44.00;;;;;9.79;58.74;102549.78;5051478;28;45405;-71
2022/03/24 07:05:07;;;;;;;;;56.25;44.50;;;;;9.94;57.97;102549.63;5046990;28;45263;-71
2022/03/24 07:07:33;;;;;;;;;55.50;43.00;;;;;10.10;57.74;102552.06;5047449;28;45472;-71
2022/03/24 07:09:58;;;;;;;;;58.00;45.50;;;;;10.26;57.32;102553.66;5051337;28;45372;-71
2022/03/24 07:12:24;;;;;;;;;60.00;46.33;;;;;10.44;57.33;102555.19;5055173;28;45404;-71
2022/03/24 07:14:49;;;;;;;;;54.00;42.33;;;;;10.61;57.37;102550.56;5055360;28;51207;-71
2022/03/24 07:17:15;;;;;;;;;58.75;42.00;;;;;10.80;56.50;102548.50;5055726;28;45502;-71
2022/03/24 07:19:40;;;;;;;;;59.00;41.25;;;;;10.99;55.38;102551.75;5049008;28;45447;-71
2022/03/24 07:22:06;;;;;;;;;57.00;41.25;;;;;11.19;54.88;102546.16;5055148;28;45480;-71
2022/03/24 07:24:31;;;;;;;;;53.75;39.00;;;;;11.38;54.42;102549.34;5055506;28;45447;-70
2022/03/24 07:26:57;;;;;;;;;57.00;42.00;;;;;11.62;54.23;102559.44;5039502;28;45606;-71
2022/03/24 07:29:22;;;;;;;;;59.25;42.00;;;;;11.86;53.44;102546.75;5052997;28;45447;-71
2022/03/24 07:31:48;;;;;;;;;56.00;42.25;;;;;12.10;53.31;102550.66;5049976;28;45464;-70
2022/03/24 07:34:14;;;;;;;;;56.00;43.00;;;;;12.28;52.42;102556.44;5049233;28;46303;-71
2022/03/24 07:36:40;;;;;;;;;59.75;42.25;;;;;12.48;53.08;102553.38;5044092;28;45463;-71
2022/03/24 07:39:06;;;;;;;;;53.75;42.00;;;;;12.76;52.05;102563.28;5052045;28;45331;-72
2022/03/24 07:41:32;;;;;;;;;58.00;42.75;;;;;13.05;51.43;102544.16;5039756;28;45551;-71
2022/03/24 07:43:58;;;;;;;;;53.75;40.25;;;;;13.42;50.90;102557.31;5044405;28;45335;-71
2022/03/24 07:46:23;;;;;;;;;54.75;40.50;;;;;13.65;50.09;102561.13;5047807;28;45717;-71
2022/03/24 07:48:49;;;;;;;;;53.67;39.67;;;;;13.85;49.46;102561.47;5054509;28;45397;-71
2022/03/24 07:51:16;;;;;;;;;50.50;39.00;;;;;14.04;49.08;102564.44;5053762;28;45427;-71
2022/03/24 07:53:47;;;;;;;;;50.00;36.50;;;;;14.14;48.48;102568.56;5053708;28;46109;-71
2022/03/24 07:56:13;;;;;;;;;50.75;41.50;;;;;14.29;48.46;102565.47;5043616;28;45328;-71
2022/03/24 07:58:39;;;;;;;;;51.00;40.00;;;;;14.45;47.72;102567.66;5043975;28;45507;-71
2022/03/24 08:01:05;;;;;;;;;52.50;40.00;;;;;14.66;47.71;102571.47;5045359;28;45401;-71
2022/03/24 08:03:31;;;;;;;;;59.75;42.25;;;;;14.86;47.41;102572.56;5055133;28;46179;-71
2022/03/24 08:05:58;;;;;;;;;51.75;39.75;;;;;15.06;46.85;102576.38;5039923;28;45467;-71
2022/03/24 08:08:26;;;;;;;;;54.25;39.25;;;;;15.23;46.59;102568.75;5041361;28;45512;-71
2022/03/24 08:10:53;;;;;;;;;53.50;40.75;;;;;15.40;46.11;102570.84;5051379;28;45523;-71
2022/03/24 08:13:20;;;;;;;;;51.00;37.25;;;;;15.53;45.66;102569.50;5054545;28;45435;-71
2022/03/24 08:15:46;;;;;;;;;53.25;40.50;;;;;15.64;45.51;102564.72;5053639;28;45555;-71
2022/03/24 08:18:14;;;;;;;;;54.50;40.00;;;;;15.78;44.88;102572.19;5054547;28;45400;-70
2022/03/24 08:20:42;;;;;;;;;52.25;39.50;;;;;15.95;44.12;102571.56;5055212;28;45297;-71
2022/03/24 08:23:09;;;;;;;;;56.25;39.75;;;;;16.11;43.36;102571.88;5049980;28;45467;-71
2022/03/24 08:25:37;;;;;;;;;54.50;41.75;;;;;16.33;42.85;102578.09;5050537;28;45892;-70
2022/03/24 08:28:02;;;;;;;;;50.50;38.50;;;;;16.55;42.89;102572.88;5054540;28;45772;-70
2022/03/24 08:30:28;;;;;;;;;50.00;39.00;;;;;16.83;42.57;102575.31;5054343;28;45405;-71
2022/03/24 08:32:54;;;;;;;;;48.50;37.50;;;;;17.26;42.17;102576.22;5054680;28;46144;-71
2022/03/24 08:35:20;;;;;;;;;48.75;37.75;;;;;17.93;40.85;102580.47;5044921;28;47048;-71
2022/03/24 08:37:45;;;;;;;;;54.00;40.00;;;;;18.78;40.20;102573.00;5054463;28;45482;-70
2022/03/24 08:40:11;;;;;;;;;47.50;37.25;;;;;19.65;38.88;102570.47;5050395;28;45388;-71
2022/03/24 08:42:38;;;;;;;;;46.25;35.75;;;;;20.29;38.58;102565.19;5050621;28;45446;-70
2022/03/24 08:45:11;;;;;;;;;51.00;36.75;;;;;20.90;38.05;102568.09;5052438;28;45612;-71
2022/03/24 08:47:37;;;;;;;;;46.75;35.75;;;;;22.23;37.32;102568.97;5049669;28;45352;-71
2022/03/24 08:50:06;;;;;;;;;48.75;37.50;;;;;24.63;35.87;102567.88;5054120;28;45558;-71
2022/03/24 08:52:31;;;;;;;;;47.25;38.00;;;;;27.01;33.82;102564.44;5047244;28;46438;-71
2022/03/24 08:54:57;;;;;;;;;42.75;36.00;;;;;29.24;32.14;102576.28;5047180;28;45360;-71
2022/03/24 08:57:26;;;;;;;;;169.25;152.00;;;;;31.00;29.97;102570.81;5048694;28;45570;-71
2022/03/24 08:59:56;;;;;;;;;42.50;32.75;;;;;32.70;27.96;102570.16;5047925;28;45305;-70
2022/03/24 09:02:22;;;;;;;;;42.75;34.00;;;;;34.41;26.90;102573.72;5045919;28;45356;-70
2022/03/24 09:04:48;;;;;;;;;43.75;35.25;;;;;35.79;25.55;102569.03;5051633;28;45380;-70
2022/03/24 09:07:14;;;;;;;;;39.25;32.00;;;;;37.12;23.50;102582.47;5053372;28;45941;-71
2022/03/24 09:09:40;;;;;;;;;37.00;32.00;;;;;38.32;22.73;102576.75;5054203;28;45469;-69
2022/03/24 09:12:06;;;;;;;;;38.00;31.25;;;;;39.50;22.04;102579.00;5054013;28;46278;-70
2022/03/24 09:14:32;;;;;;;;;37.50;32.25;;;;;40.36;21.10;102585.13;5054431;28;45467;-69
2022/03/24 09:16:57;;;;;;;;;43.75;33.50;;;;;41.35;19.95;102583.66;5053755;28;45666;-69
2022/03/24 09:19:22;;;;;;;;;44.75;35.00;;;;;42.15;19.80;102583.59;5054237;28;45554;-70
2022/03/24 09:21:48;;;;;;;;;43.75;33.75;;;;;42.67;18.69;102588.66;5050605;28;45528;-69
2022/03/24 09:24:13;;;;;;;;;35.75;31.00;;;;;43.15;18.03;102585.78;5050695;28;45274;-69
2022/03/24 09:26:39;;;;;;;;;42.00;33.50;;;;;43.55;17.03;102587.00;5049853;28;45563;-69
2022/03/24 09:29:05;;;;;;;;;55.25;42.75;;;;;44.06;17.18;102588.09;5050628;28;45360;-70
2022/03/24 09:31:30;;;;;;;;;42.25;34.00;;;;;44.51;17.01;102583.47;5051881;28;46180;-70
2022/03/24 09:33:56;;;;;;;;;41.75;32.00;;;;;45.15;16.53;102585.16;5050679;28;45533;-70
2022/03/24 09:36:22;;;;;;;;;34.75;30.25;;;;;45.69;15.80;102588.22;5046746;28;45558;-70
2022/03/24 09:38:47;;;;;;;;;44.00;33.75;;;;;46.13;15.78;102585.44;5053650;28;45336;-70
2022/03/24 09:41:14;;;;;;;;;40.50;33.75;;;;;46.61;15.15;102584.59;5052915;28;45662;-71
2022/03/24 09:43:41;;;;;;;;;0.00;0.00;;;;;47.02;14.92;102588.56;5050311;28;45372;-70
2022/03/24 09:46:07;;;;;;;;;43.25;34.25;;;;;47.26;14.74;102589.06;5052945;28;45499;-70
2022/03/24 09:48:33;;;;;;;;;40.00;31.50;;;;;47.08;14.03;102586.66;5053635;28;45476;-70
2022/03/24 09:50:58;;;;;;;;;38.00;31.50;;;;;46.76;13.92;102587.50;5052902;28;45502;-70
2022/03/24 09:53:23;;;;;;;;;47.50;37.00;;;;;46.08;14.19;102577.88;5051851;28;45745;-70
2022/03/24 09:55:50;;;;;;;;;38.75;33.25;;;;;45.30;14.24;102580.69;5052499;28;45430;-70
2022/03/24 09:58:16;;;;;;;;;51.50;40.50;;;;;44.32;14.22;102579.22;5048091;28;45568;-71
2022/03/24 10:00:42;;;;;;;;;46.50;36.75;;;;;43.25;14.89;102571.34;5051539;28;45482;-70
2022/03/24 10:03:12;;;;;;;;;43.75;34.00;;;;;42.17;14.71;102567.63;5041181;28;45513;-70
2022/03/24 10:06:00;;;;;;;;;41.75;32.50;;;;;41.19;15.03;102574.00;5044403;28;45463;-70
2022/03/24 10:08:27;;;;;;;;;44.25;34.00;;;;;40.55;15.82;102566.81;5044020;28;45487;-70
2022/03/24 10:10:57;;;;;;;;;43.25;33.25;;;;;40.10;16.11;102564.09;5055065;28;46283;-70
2022/03/24 10:13:24;;;;;;;;;39.25;33.50;;;;;39.52;16.35;102566.75;5056660;28;45713;-70
2022/03/24 10:15:50;;;;;;;;;36.75;32.00;;;;;39.01;16.35;102567.38;5057189;28;45614;-70
2022/03/24 10:18:16;;;;;;;;;44.00;36.00;;;;;38.71;16.34;102568.81;5056818;28;45376;-70
2022/03/24 10:20:41;;;;;;;;;42.75;34.00;;;;;38.32;16.56;102563.00;5056645;28;46234;-70
2022/03/24 10:23:07;;;;;;;;;45.75;35.25;;;;;38.02;17.02;102558.84;5057054;28;45468;-70
2022/03/24 10:25:36;;;;;;;;;36.75;31.75;;;;;38.01;16.70;102560.75;5056442;28;45463;-69
2022/03/24 10:28:07;;;;;;;;;43.75;35.25;;;;;38.01;16.85;102558.00;5057118;28;45292;-69
2022/03/24 10:30:50;;;;;;;;;35.25;32.50;;;;;37.86;16.57;102554.56;5056709;28;45559;-70
2022/03/24 10:33:33;;;;;;;;;41.50;34.00;;;;;37.88;16.85;102554.34;5041550;28;45678;-70
2022/03/24 10:36:16;;;;;;;;;39.25;32.50;;;;;37.90;17.31;102557.72;5056166;28;45505;-70
2022/03/24 10:38:50;;;;;;;;;43.75;34.25;;;;;37.57;16.52;102548.22;5053599;28;45380;-70
2022/03/24 10:41:18;;;;;;;;;44.00;33.00;;;;;37.20;17.15;102543.94;5056388;28;46105;-70
2022/03/24 10:43:45;;;;;;;;;44.75;32.25;;;;;36.58;16.99;102539.94;5056546;28;45805;-69
2022/03/24 10:46:21;;;;;;;;;43.25;33.75;;;;;35.80;17.48;102538.75;5056249;28;45385;-70
2022/03/24 10:48:48;;;;;;;;;47.50;34.75;;;;;35.16;17.75;102543.00;5055760;28;45433;-70
2022/03/24 10:51:31;;;;;;;;;41.50;33.00;;;;;34.49;17.98;102549.09;5056104;28;47227;-70
2022/03/24 10:54:15;;;;;;;;;44.50;34.00;;;;;33.99;18.55;102547.66;5054786;28;45782;-71
2022/03/24 10:57:01;;;;;;;;;45.50;32.50;;;;;33.61;18.32;102543.81;5051847;28;45530;-70
2022/03/24 10:59:30;;;;;;;;;37.75;29.25;;;;;33.14;18.71;102544.50;5047318;28;45511;-70
2022/03/24 11:01:55;;;;;;;;;38.50;31.75;;;;;32.76;19.16;102543.28;5055936;28;45520;-70
2022/03/24 11:04:21;;;;;;;;;39.75;31.75;;;;;32.30;19.58;102540.09;5055563;28;45262;-70
2022/03/24 11:06:48;;;;;;;;;44.50;34.25;;;;;31.87;19.40;102537.38;5055905;28;45602;-72
2022/03/24 11:09:27;;;;;;;;;39.75;32.25;;;;;31.54;19.21;102541.75;5056310;28;47483;-71
2022/03/24 11:12:45;;;;;;;;;39.25;32.25;;;;;31.34;20.11;102532.09;5039058;28;45745;-71